sensor_id;sensor_type;location;lat;lon;timestamp;P1;durP1;ratioP1;P2;durP2;ratioP2
59306;SDS011;47983;53.016;-2.260;2023-09-12T00:01:37;30.02;;;12.43;;
59306;SDS011;47983;53.016;-2.260;2023-09-12T00:04:05;29.45;;;13.40;;
59306;SDS011;47983;53.016;-2.260;2023-09-12T00:06:33;29.02;;;13.95;;
59306;SDS011;47983;53.016;-2.260;2023-09-12T00:09:01;26.33;;;14.90;;
59306;SDS011;47983;53.016;-2.260;2023-09-12T00:11:28;30.30;;;15.13;;
59306;SDS011;47983;53.016;-2.260;2023-09-12T00:13:56;33.33;;;15.45;;
59306;SDS011;47983;53.016;-2.260;2023-09-12T00:16:24;28.80;;;16.95;;
59306;SDS011;47983;53.016;-2.260;2023-09-12T00:18:52;30.33;;;15.55;;
59306;SDS011;47983;53.016;-2.260;2023-09-12T00:21:19;29.00;;;15.02;;
59306;SDS011;47983;53.016;-2.260;2023-09-12T00:23:47;35.15;;;15.35;;
59306;SDS011;47983;53.016;-2.260;2023-09-12T00:26:15;35.20;;;15.20;;
59306;SDS011;47983;53.016;-2.260;2023-09-12T00:28:45;37.55;;;15.75;;
59306;SDS011;47983;53.016;-2.260;2023-09-12T00:31:12;40.28;;;16.35;;
59306;SDS011;47983;53.016;-2.260;2023-09-12T00:33:40;42.40;;;15.48;;
59306;SDS011;47983;53.016;-2.260;2023-09-12T00:36:08;45.47;;;17.48;;
59306;SDS011;47983;53.016;-2.260;2023-09-12T00:38:35;39.33;;;17.40;;
59306;SDS011;47983;53.016;-2.260;2023-09-12T00:41:03;44.63;;;17.60;;
59306;SDS011;47983;53.016;-2.260;2023-09-12T00:43:31;47.55;;;17.75;;
59306;SDS011;47983;53.016;-2.260;2023-09-12T00:45:58;43.53;;;17.77;;
59306;SDS011;47983;53.016;-2.260;2023-09-12T00:48:26;49.83;;;17.63;;
59306;SDS011;47983;53.016;-2.260;2023-09-12T00:50:54;48.00;;;17.58;;
59306;SDS011;47983;53.016;-2.260;2023-09-12T00:53:28;45.92;;;18.08;;
59306;SDS011;47983;53.016;-2.260;2023-09-12T00:55:56;53.65;;;19.30;;
59306;SDS011;47983;53.016;-2.260;2023-09-12T00:58:26;58.67;;;20.02;;
59306;SDS011;47983;53.016;-2.260;2023-09-12T01:00:55;37.78;;;19.00;;
59306;SDS011;47983;53.016;-2.260;2023-09-12T01:03:24;42.05;;;18.33;;
59306;SDS011;47983;53.016;-2.260;2023-09-12T01:05:52;39.05;;;18.85;;
59306;SDS011;47983;53.016;-2.260;2023-09-12T01:08:21;39.95;;;20.27;;
59306;SDS011;47983;53.016;-2.260;2023-09-12T01:10:49;36.17;;;19.00;;
59306;SDS011;47983;53.016;-2.260;2023-09-12T01:13:20;34.55;;;18.73;;
59306;SDS011;47983;53.016;-2.260;2023-09-12T01:15:48;27.88;;;17.42;;
59306;SDS011;47983;53.016;-2.260;2023-09-12T01:18:15;27.50;;;16.17;;
59306;SDS011;47983;53.016;-2.260;2023-09-12T01:20:48;25.00;;;16.08;;
59306;SDS011;47983;53.016;-2.260;2023-09-12T01:26:48;26.70;;;15.30;;
59306;SDS011;47983;53.016;-2.260;2023-09-12T01:29:27;19.85;;;12.43;;
59306;SDS011;47983;53.016;-2.260;2023-09-12T01:31:58;22.85;;;12.25;;
59306;SDS011;47983;53.016;-2.260;2023-09-12T01:34:27;17.45;;;11.52;;
59306;SDS011;47983;53.016;-2.260;2023-09-12T01:36:55;13.70;;;8.73;;
59306;SDS011;47983;53.016;-2.260;2023-09-12T01:39:23;11.18;;;7.65;;
59306;SDS011;47983;53.016;-2.260;2023-09-12T01:41:54;10.40;;;7.38;;
59306;SDS011;47983;53.016;-2.260;2023-09-12T01:44:22;12.50;;;6.85;;
59306;SDS011;47983;53.016;-2.260;2023-09-12T01:46:52;14.55;;;7.38;;
59306;SDS011;47983;53.016;-2.260;2023-09-12T01:49:23;13.52;;;7.00;;
59306;SDS011;47983;53.016;-2.260;2023-09-12T01:51:53;11.52;;;7.32;;
59306;SDS011;47983;53.016;-2.260;2023-09-12T01:54:21;13.90;;;6.72;;
59306;SDS011;47983;53.016;-2.260;2023-09-12T01:56:50;16.42;;;7.25;;
59306;SDS011;47983;53.016;-2.260;2023-09-12T01:59:18;12.27;;;7.22;;
59306;SDS011;47983;53.016;-2.260;2023-09-12T02:01:46;10.48;;;6.97;;
59306;SDS011;47983;53.016;-2.260;2023-09-12T02:04:14;17.20;;;8.18;;
59306;SDS011;47983;53.016;-2.260;2023-09-12T02:06:41;11.00;;;6.85;;
59306;SDS011;47983;53.016;-2.260;2023-09-12T02:09:09;14.13;;;7.93;;
59306;SDS011;47983;53.016;-2.260;2023-09-12T02:11:37;12.25;;;7.05;;
59306;SDS011;47983;53.016;-2.260;2023-09-12T02:14:05;10.32;;;7.00;;
59306;SDS011;47983;53.016;-2.260;2023-09-12T02:16:35;15.80;;;6.90;;
59306;SDS011;47983;53.016;-2.260;2023-09-12T02:19:11;12.98;;;6.65;;
59306;SDS011;47983;53.016;-2.260;2023-09-12T02:21:39;18.00;;;7.20;;
59306;SDS011;47983;53.016;-2.260;2023-09-12T02:24:07;13.40;;;7.03;;
59306;SDS011;47983;53.016;-2.260;2023-09-12T02:26:35;11.52;;;7.00;;
59306;SDS011;47983;53.016;-2.260;2023-09-12T02:29:03;13.73;;;6.80;;
59306;SDS011;47983;53.016;-2.260;2023-09-12T02:31:34;17.85;;;7.20;;
59306;SDS011;47983;53.016;-2.260;2023-09-12T02:34:02;13.55;;;6.97;;
59306;SDS011;47983;53.016;-2.260;2023-09-12T02:36:29;15.57;;;7.13;;
59306;SDS011;47983;53.016;-2.260;2023-09-12T02:38:58;18.27;;;6.55;;
59306;SDS011;47983;53.016;-2.260;2023-09-12T02:41:26;10.80;;;6.45;;
59306;SDS011;47983;53.016;-2.260;2023-09-12T02:43:53;17.23;;;7.00;;
59306;SDS011;47983;53.016;-2.260;2023-09-12T02:46:21;15.52;;;7.10;;
59306;SDS011;47983;53.016;-2.260;2023-09-12T02:48:49;10.00;;;5.85;;
59306;SDS011;47983;53.016;-2.260;2023-09-12T02:51:17;14.07;;;6.22;;
59306;SDS011;47983;53.016;-2.260;2023-09-12T02:53:44;9.77;;;5.68;;
59306;SDS011;47983;53.016;-2.260;2023-09-12T02:56:13;10.27;;;5.00;;
59306;SDS011;47983;53.016;-2.260;2023-09-12T02:58:40;7.25;;;4.28;;
59306;SDS011;47983;53.016;-2.260;2023-09-12T03:01:13;9.77;;;4.97;;
59306;SDS011;47983;53.016;-2.260;2023-09-12T03:03:46;8.45;;;4.63;;
59306;SDS011;47983;53.016;-2.260;2023-09-12T03:06:14;9.40;;;4.78;;
59306;SDS011;47983;53.016;-2.260;2023-09-12T03:08:43;9.05;;;4.72;;
59306;SDS011;47983;53.016;-2.260;2023-09-12T03:11:11;10.15;;;4.97;;
59306;SDS011;47983;53.016;-2.260;2023-09-12T03:13:42;12.05;;;4.97;;
59306;SDS011;47983;53.016;-2.260;2023-09-12T03:16:10;9.98;;;5.10;;
59306;SDS011;47983;53.016;-2.260;2023-09-12T03:18:38;12.85;;;5.22;;
59306;SDS011;47983;53.016;-2.260;2023-09-12T03:21:07;7.72;;;4.78;;
59306;SDS011;47983;53.016;-2.260;2023-09-12T03:23:35;10.63;;;4.80;;
59306;SDS011;47983;53.016;-2.260;2023-09-12T03:26:03;11.00;;;4.70;;
59306;SDS011;47983;53.016;-2.260;2023-09-12T03:28:33;7.45;;;5.05;;
59306;SDS011;47983;53.016;-2.260;2023-09-12T03:33:41;8.35;;;4.93;;
59306;SDS011;47983;53.016;-2.260;2023-09-12T03:36:09;10.33;;;4.53;;
59306;SDS011;47983;53.016;-2.260;2023-09-12T03:38:37;8.15;;;4.45;;
59306;SDS011;47983;53.016;-2.260;2023-09-12T03:41:04;12.43;;;5.07;;
59306;SDS011;47983;53.016;-2.260;2023-09-12T03:43:32;13.30;;;4.78;;
59306;SDS011;47983;53.016;-2.260;2023-09-12T03:48:31;10.10;;;5.35;;
59306;SDS011;47983;53.016;-2.260;2023-09-12T03:50:59;7.95;;;5.18;;
59306;SDS011;47983;53.016;-2.260;2023-09-12T03:53:26;7.88;;;5.32;;
59306;SDS011;47983;53.016;-2.260;2023-09-12T03:55:55;11.00;;;5.97;;
59306;SDS011;47983;53.016;-2.260;2023-09-12T03:58:22;8.60;;;5.20;;
59306;SDS011;47983;53.016;-2.260;2023-09-12T04:00:50;7.05;;;4.43;;
59306;SDS011;47983;53.016;-2.260;2023-09-12T04:03:18;8.90;;;4.53;;
59306;SDS011;47983;53.016;-2.260;2023-09-12T04:05:48;6.50;;;4.90;;
59306;SDS011;47983;53.016;-2.260;2023-09-12T04:08:16;7.05;;;5.13;;
59306;SDS011;47983;53.016;-2.260;2023-09-12T04:10:44;8.07;;;5.63;;
59306;SDS011;47983;53.016;-2.260;2023-09-12T04:13:12;8.40;;;5.85;;
59306;SDS011;47983;53.016;-2.260;2023-09-12T04:15:39;10.23;;;6.53;;
59306;SDS011;47983;53.016;-2.260;2023-09-12T04:18:07;10.23;;;6.68;;
59306;SDS011;47983;53.016;-2.260;2023-09-12T04:20:35;10.57;;;6.72;;
59306;SDS011;47983;53.016;-2.260;2023-09-12T04:23:03;11.85;;;7.22;;
59306;SDS011;47983;53.016;-2.260;2023-09-12T04:25:31;9.38;;;6.68;;
59306;SDS011;47983;53.016;-2.260;2023-09-12T04:28:00;9.48;;;5.85;;
59306;SDS011;47983;53.016;-2.260;2023-09-12T04:30:28;8.50;;;5.97;;
59306;SDS011;47983;53.016;-2.260;2023-09-12T04:32:56;9.95;;;6.20;;
59306;SDS011;47983;53.016;-2.260;2023-09-12T04:35:24;11.02;;;6.95;;
59306;SDS011;47983;53.016;-2.260;2023-09-12T04:37:52;9.65;;;6.25;;
59306;SDS011;47983;53.016;-2.260;2023-09-12T04:40:20;8.00;;;6.10;;
59306;SDS011;47983;53.016;-2.260;2023-09-12T04:42:47;11.88;;;6.05;;
59306;SDS011;47983;53.016;-2.260;2023-09-12T04:45:15;7.07;;;5.13;;
59306;SDS011;47983;53.016;-2.260;2023-09-12T04:47:43;6.82;;;5.30;;
59306;SDS011;47983;53.016;-2.260;2023-09-12T04:50:11;7.35;;;5.03;;
59306;SDS011;47983;53.016;-2.260;2023-09-12T04:52:39;6.55;;;4.88;;
59306;SDS011;47983;53.016;-2.260;2023-09-12T04:55:06;6.00;;;4.68;;
59306;SDS011;47983;53.016;-2.260;2023-09-12T04:57:34;6.65;;;4.63;;
59306;SDS011;47983;53.016;-2.260;2023-09-12T05:00:02;5.88;;;4.28;;
59306;SDS011;47983;53.016;-2.260;2023-09-12T05:02:32;6.15;;;4.13;;
59306;SDS011;47983;53.016;-2.260;2023-09-12T05:05:00;7.28;;;4.47;;
59306;SDS011;47983;53.016;-2.260;2023-09-12T05:07:28;4.03;;;3.25;;
59306;SDS011;47983;53.016;-2.260;2023-09-12T05:09:55;5.97;;;3.95;;
59306;SDS011;47983;53.016;-2.260;2023-09-12T05:12:23;4.38;;;2.95;;
59306;SDS011;47983;53.016;-2.260;2023-09-12T05:14:51;5.38;;;3.40;;
59306;SDS011;47983;53.016;-2.260;2023-09-12T05:17:19;4.68;;;3.42;;
59306;SDS011;47983;53.016;-2.260;2023-09-12T05:19:46;5.50;;;3.47;;
59306;SDS011;47983;53.016;-2.260;2023-09-12T05:22:14;6.00;;;3.85;;
59306;SDS011;47983;53.016;-2.260;2023-09-12T05:24:42;5.15;;;3.80;;
59306;SDS011;47983;53.016;-2.260;2023-09-12T05:27:10;6.88;;;4.10;;
59306;SDS011;47983;53.016;-2.260;2023-09-12T05:29:38;9.48;;;4.60;;
59306;SDS011;47983;53.016;-2.260;2023-09-12T05:32:05;7.93;;;4.63;;
59306;SDS011;47983;53.016;-2.260;2023-09-12T05:34:33;9.50;;;4.75;;
59306;SDS011;47983;53.016;-2.260;2023-09-12T05:37:01;5.95;;;4.68;;
59306;SDS011;47983;53.016;-2.260;2023-09-12T05:39:30;5.25;;;4.40;;
59306;SDS011;47983;53.016;-2.260;2023-09-12T05:41:58;6.43;;;4.50;;
59306;SDS011;47983;53.016;-2.260;2023-09-12T05:44:26;7.43;;;5.07;;
59306;SDS011;47983;53.016;-2.260;2023-09-12T05:46:53;8.00;;;4.60;;
59306;SDS011;47983;53.016;-2.260;2023-09-12T05:49:21;7.05;;;5.15;;
59306;SDS011;47983;53.016;-2.260;2023-09-12T05:51:49;5.35;;;4.25;;
59306;SDS011;47983;53.016;-2.260;2023-09-12T05:54:18;7.05;;;3.88;;
59306;SDS011;47983;53.016;-2.260;2023-09-12T05:56:46;6.55;;;4.13;;
59306;SDS011;47983;53.016;-2.260;2023-09-12T05:59:15;8.20;;;4.20;;
59306;SDS011;47983;53.016;-2.260;2023-09-12T06:01:43;4.40;;;3.88;;
59306;SDS011;47983;53.016;-2.260;2023-09-12T06:04:12;5.78;;;4.03;;
59306;SDS011;47983;53.016;-2.260;2023-09-12T06:06:40;6.10;;;3.95;;
59306;SDS011;47983;53.016;-2.260;2023-09-12T06:09:10;5.47;;;3.63;;
59306;SDS011;47983;53.016;-2.260;2023-09-12T06:11:37;6.13;;;3.60;;
59306;SDS011;47983;53.016;-2.260;2023-09-12T06:14:05;5.07;;;3.50;;
59306;SDS011;47983;53.016;-2.260;2023-09-12T06:16:33;3.80;;;3.17;;
59306;SDS011;47983;53.016;-2.260;2023-09-12T06:19:01;3.67;;;2.80;;
59306;SDS011;47983;53.016;-2.260;2023-09-12T06:21:29;3.45;;;2.70;;
59306;SDS011;47983;53.016;-2.260;2023-09-12T06:24:15;3.65;;;1.92;;
59306;SDS011;47983;53.016;-2.260;2023-09-12T06:26:44;2.90;;;2.20;;
59306;SDS011;47983;53.016;-2.260;2023-09-12T06:29:12;4.47;;;2.20;;
59306;SDS011;47983;53.016;-2.260;2023-09-12T06:31:41;3.60;;;2.60;;
59306;SDS011;47983;53.016;-2.260;2023-09-12T06:34:09;3.63;;;2.55;;
59306;SDS011;47983;53.016;-2.260;2023-09-12T06:36:38;4.68;;;2.30;;
59306;SDS011;47983;53.016;-2.260;2023-09-12T06:39:09;3.85;;;2.72;;
59306;SDS011;47983;53.016;-2.260;2023-09-12T06:41:37;5.10;;;2.80;;
59306;SDS011;47983;53.016;-2.260;2023-09-12T06:44:05;6.45;;;2.80;;
59306;SDS011;47983;53.016;-2.260;2023-09-12T06:46:34;3.72;;;2.78;;
59306;SDS011;47983;53.016;-2.260;2023-09-12T06:49:05;9.13;;;2.88;;
59306;SDS011;47983;53.016;-2.260;2023-09-12T06:51:36;7.68;;;3.10;;
59306;SDS011;47983;53.016;-2.260;2023-09-12T06:54:06;4.95;;;3.03;;
59306;SDS011;47983;53.016;-2.260;2023-09-12T06:56:34;3.83;;;2.47;;
59306;SDS011;47983;53.016;-2.260;2023-09-12T06:59:05;3.17;;;1.85;;
59306;SDS011;47983;53.016;-2.260;2023-09-12T07:01:33;2.75;;;2.08;;
59306;SDS011;47983;53.016;-2.260;2023-09-12T07:04:01;2.03;;;1.40;;
59306;SDS011;47983;53.016;-2.260;2023-09-12T07:06:30;3.22;;;1.00;;
59306;SDS011;47983;53.016;-2.260;2023-09-12T07:08:59;1.20;;;1.08;;
59306;SDS011;47983;53.016;-2.260;2023-09-12T07:11:27;3.15;;;1.15;;
59306;SDS011;47983;53.016;-2.260;2023-09-12T07:13:55;0.82;;;0.82;;
59306;SDS011;47983;53.016;-2.260;2023-09-12T07:16:26;0.85;;;0.85;;
59306;SDS011;47983;53.016;-2.260;2023-09-12T07:18:53;1.33;;;0.88;;
59306;SDS011;47983;53.016;-2.260;2023-09-12T07:21:21;0.88;;;0.88;;
59306;SDS011;47983;53.016;-2.260;2023-09-12T07:23:49;3.50;;;0.90;;
59306;SDS011;47983;53.016;-2.260;2023-09-12T07:26:16;1.35;;;0.80;;
59306;SDS011;47983;53.016;-2.260;2023-09-12T07:28:44;1.95;;;0.70;;
59306;SDS011;47983;53.016;-2.260;2023-09-12T07:31:12;1.58;;;0.85;;
59306;SDS011;47983;53.016;-2.260;2023-09-12T07:33:41;0.85;;;0.52;;
59306;SDS011;47983;53.016;-2.260;2023-09-12T07:36:09;1.25;;;0.50;;
59306;SDS011;47983;53.016;-2.260;2023-09-12T07:38:37;0.40;;;0.40;;
59306;SDS011;47983;53.016;-2.260;2023-09-12T07:41:05;1.90;;;0.25;;
59306;SDS011;47983;53.016;-2.260;2023-09-12T07:43:32;1.25;;;0.35;;
59306;SDS011;47983;53.016;-2.260;2023-09-12T07:46:00;0.20;;;0.20;;
59306;SDS011;47983;53.016;-2.260;2023-09-12T07:48:28;0.52;;;0.30;;
59306;SDS011;47983;53.016;-2.260;2023-09-12T07:50:56;0.65;;;0.22;;
59306;SDS011;47983;53.016;-2.260;2023-09-12T07:53:24;0.80;;;0.20;;
59306;SDS011;47983;53.016;-2.260;2023-09-12T07:55:51;1.15;;;0.17;;
59306;SDS011;47983;53.016;-2.260;2023-09-12T07:58:19;0.68;;;0.30;;
59306;SDS011;47983;53.016;-2.260;2023-09-12T08:00:47;1.40;;;0.10;;
59306;SDS011;47983;53.016;-2.260;2023-09-12T08:03:15;0.03;;;0.03;;
59306;SDS011;47983;53.016;-2.260;2023-09-12T08:05:53;0.13;;;0.13;;
59306;SDS011;47983;53.016;-2.260;2023-09-12T08:08:25;1.25;;;0.20;;
59306;SDS011;47983;53.016;-2.260;2023-09-12T08:10:52;0.32;;;0.10;;
59306;SDS011;47983;53.016;-2.260;2023-09-12T08:13:21;0.30;;;0.10;;
59306;SDS011;47983;53.016;-2.260;2023-09-12T08:15:49;0.45;;;0.10;;
59306;SDS011;47983;53.016;-2.260;2023-09-12T08:18:16;0.10;;;0.10;;
59306;SDS011;47983;53.016;-2.260;2023-09-12T08:20:44;1.17;;;0.20;;
59306;SDS011;47983;53.016;-2.260;2023-09-12T08:23:12;1.20;;;0.10;;
59306;SDS011;47983;53.016;-2.260;2023-09-12T08:25:39;2.05;;;0.30;;
59306;SDS011;47983;53.016;-2.260;2023-09-12T08:28:07;0.10;;;0.10;;
59306;SDS011;47983;53.016;-2.260;2023-09-12T08:30:35;0.10;;;0.10;;
59306;SDS011;47983;53.016;-2.260;2023-09-12T08:33:03;0.77;;;0.10;;
59306;SDS011;47983;53.016;-2.260;2023-09-12T08:38:01;0.35;;;0.10;;
59306;SDS011;47983;53.016;-2.260;2023-09-12T08:40:29;0.52;;;0.20;;
59306;SDS011;47983;53.016;-2.260;2023-09-12T08:42:58;0.75;;;0.20;;
59306;SDS011;47983;53.016;-2.260;2023-09-12T08:45:26;0.30;;;0.20;;
59306;SDS011;47983;53.016;-2.260;2023-09-12T08:47:54;1.02;;;0.20;;
59306;SDS011;47983;53.016;-2.260;2023-09-12T08:50:24;0.63;;;0.20;;
59306;SDS011;47983;53.016;-2.260;2023-09-12T08:52:55;0.63;;;0.20;;
59306;SDS011;47983;53.016;-2.260;2023-09-12T08:55:34;1.48;;;0.40;;
59306;SDS011;47983;53.016;-2.260;2023-09-12T08:58:05;1.27;;;0.30;;
59306;SDS011;47983;53.016;-2.260;2023-09-12T09:00:34;0.30;;;0.10;;
59306;SDS011;47983;53.016;-2.260;2023-09-12T09:03:03;0.55;;;0.40;;
59306;SDS011;47983;53.016;-2.260;2023-09-12T09:05:32;1.40;;;0.50;;
59306;SDS011;47983;53.016;-2.260;2023-09-12T09:08:02;2.03;;;0.30;;
59306;SDS011;47983;53.016;-2.260;2023-09-12T09:10:30;1.10;;;0.75;;
59306;SDS011;47983;53.016;-2.260;2023-09-12T09:13:15;1.35;;;0.77;;
59306;SDS011;47983;53.016;-2.260;2023-09-12T09:15:43;2.38;;;1.10;;
59306;SDS011;47983;53.016;-2.260;2023-09-12T09:18:11;1.33;;;1.02;;
59306;SDS011;47983;53.016;-2.260;2023-09-12T09:20:40;1.30;;;0.70;;
59306;SDS011;47983;53.016;-2.260;2023-09-12T09:23:09;0.50;;;0.28;;
59306;SDS011;47983;53.016;-2.260;2023-09-12T09:25:42;0.40;;;0.30;;
59306;SDS011;47983;53.016;-2.260;2023-09-12T09:28:18;1.20;;;0.20;;
59306;SDS011;47983;53.016;-2.260;2023-09-12T09:30:48;0.82;;;0.25;;
59306;SDS011;47983;53.016;-2.260;2023-09-12T09:33:20;0.57;;;0.20;;
59306;SDS011;47983;53.016;-2.260;2023-09-12T09:35:48;0.65;;;0.20;;
59306;SDS011;47983;53.016;-2.260;2023-09-12T09:38:18;1.25;;;0.25;;
59306;SDS011;47983;53.016;-2.260;2023-09-12T09:40:47;0.60;;;0.20;;
59306;SDS011;47983;53.016;-2.260;2023-09-12T09:43:21;0.35;;;0.20;;
59306;SDS011;47983;53.016;-2.260;2023-09-12T09:45:50;0.70;;;0.10;;
59306;SDS011;47983;53.016;-2.260;2023-09-12T09:48:18;0.45;;;0.10;;
59306;SDS011;47983;53.016;-2.260;2023-09-12T09:50:46;1.67;;;0.35;;
59306;SDS011;47983;53.016;-2.260;2023-09-12T09:53:14;0.20;;;0.20;;
59306;SDS011;47983;53.016;-2.260;2023-09-12T09:55:42;0.15;;;0.10;;
59306;SDS011;47983;53.016;-2.260;2023-09-12T09:58:16;0.55;;;0.20;;
59306;SDS011;47983;53.016;-2.260;2023-09-12T10:00:44;4.45;;;0.30;;
59306;SDS011;47983;53.016;-2.260;2023-09-12T10:03:16;0.35;;;0.20;;
59306;SDS011;47983;53.016;-2.260;2023-09-12T10:05:48;1.23;;;0.30;;
59306;SDS011;47983;53.016;-2.260;2023-09-12T10:08:20;0.68;;;0.68;;
59306;SDS011;47983;53.016;-2.260;2023-09-12T10:13:18;0.20;;;0.20;;
59306;SDS011;47983;53.016;-2.260;2023-09-12T10:15:47;0.17;;;0.17;;
59306;SDS011;47983;53.016;-2.260;2023-09-12T10:18:18;1.35;;;0.22;;
59306;SDS011;47983;53.016;-2.260;2023-09-12T10:20:52;0.50;;;0.10;;
59306;SDS011;47983;53.016;-2.260;2023-09-12T10:23:34;0.20;;;0.08;;
59306;SDS011;47983;53.016;-2.260;2023-09-12T10:26:17;0.10;;;0.10;;
59306;SDS011;47983;53.016;-2.260;2023-09-12T10:31:16;0.30;;;0.20;;
59306;SDS011;47983;53.016;-2.260;2023-09-12T10:33:44;0.17;;;0.17;;
59306;SDS011;47983;53.016;-2.260;2023-09-12T10:36:15;0.13;;;0.10;;
59306;SDS011;47983;53.016;-2.260;2023-09-12T10:38:47;0.10;;;0.10;;
59306;SDS011;47983;53.016;-2.260;2023-09-12T10:41:16;0.22;;;0.10;;
59306;SDS011;47983;53.016;-2.260;2023-09-12T10:43:44;0.57;;;0.10;;
59306;SDS011;47983;53.016;-2.260;2023-09-12T10:46:17;0.17;;;0.17;;
59306;SDS011;47983;53.016;-2.260;2023-09-12T10:48:45;0.25;;;0.20;;
59306;SDS011;47983;53.016;-2.260;2023-09-12T10:51:13;0.88;;;0.20;;
59306;SDS011;47983;53.016;-2.260;2023-09-12T10:53:48;0.85;;;0.20;;
59306;SDS011;47983;53.016;-2.260;2023-09-12T10:56:20;3.08;;;0.20;;
59306;SDS011;47983;53.016;-2.260;2023-09-12T11:01:32;2.13;;;0.30;;
59306;SDS011;47983;53.016;-2.260;2023-09-12T11:06:47;0.45;;;0.28;;
59306;SDS011;47983;53.016;-2.260;2023-09-12T11:11:57;0.60;;;0.60;;
59306;SDS011;47983;53.016;-2.260;2023-09-12T11:14:29;3.80;;;1.10;;
59306;SDS011;47983;53.016;-2.260;2023-09-12T11:19:44;2.70;;;0.85;;
59306;SDS011;47983;53.016;-2.260;2023-09-12T11:24:56;2.95;;;1.10;;
59306;SDS011;47983;53.016;-2.260;2023-09-12T11:27:25;4.18;;;1.95;;
59306;SDS011;47983;53.016;-2.260;2023-09-12T11:30:04;2.22;;;1.63;;
59306;SDS011;47983;53.016;-2.260;2023-09-12T11:32:35;2.65;;;1.30;;
59306;SDS011;47983;53.016;-2.260;2023-09-12T11:35:07;2.83;;;1.40;;
59306;SDS011;47983;53.016;-2.260;2023-09-12T11:37:35;3.28;;;1.40;;
59306;SDS011;47983;53.016;-2.260;2023-09-12T11:42:39;1.42;;;1.00;;
59306;SDS011;47983;53.016;-2.260;2023-09-12T11:45:09;1.40;;;0.82;;
59306;SDS011;47983;53.016;-2.260;2023-09-12T11:47:40;1.30;;;0.70;;
59306;SDS011;47983;53.016;-2.260;2023-09-12T11:50:09;1.25;;;0.70;;
59306;SDS011;47983;53.016;-2.260;2023-09-12T11:53:03;0.40;;;0.40;;
59306;SDS011;47983;53.016;-2.260;2023-09-12T11:55:46;1.27;;;0.70;;
59306;SDS011;47983;53.016;-2.260;2023-09-12T11:58:16;1.17;;;0.50;;
59306;SDS011;47983;53.016;-2.260;2023-09-12T12:00:49;1.05;;;0.60;;
59306;SDS011;47983;53.016;-2.260;2023-09-12T12:03:21;1.13;;;0.60;;
59306;SDS011;47983;53.016;-2.260;2023-09-12T12:05:50;1.05;;;0.70;;
59306;SDS011;47983;53.016;-2.260;2023-09-12T12:08:19;1.83;;;0.77;;
59306;SDS011;47983;53.016;-2.260;2023-09-12T12:10:59;1.90;;;1.00;;
59306;SDS011;47983;53.016;-2.260;2023-09-12T12:13:27;2.83;;;1.20;;
59306;SDS011;47983;53.016;-2.260;2023-09-12T12:15:56;1.75;;;1.15;;
59306;SDS011;47983;53.016;-2.260;2023-09-12T12:18:24;1.98;;;1.33;;
59306;SDS011;47983;53.016;-2.260;2023-09-12T12:20:54;1.63;;;1.10;;
59306;SDS011;47983;53.016;-2.260;2023-09-12T12:23:22;1.85;;;1.23;;
59306;SDS011;47983;53.016;-2.260;2023-09-12T12:25:50;2.50;;;1.00;;
59306;SDS011;47983;53.016;-2.260;2023-09-12T12:28:18;2.65;;;1.20;;
59306;SDS011;47983;53.016;-2.260;2023-09-12T12:30:45;1.25;;;0.88;;
59306;SDS011;47983;53.016;-2.260;2023-09-12T12:33:14;1.20;;;0.80;;
59306;SDS011;47983;53.016;-2.260;2023-09-12T12:36:02;1.52;;;0.90;;
59306;SDS011;47983;53.016;-2.260;2023-09-12T12:38:33;2.28;;;1.10;;
59306;SDS011;47983;53.016;-2.260;2023-09-12T12:41:04;2.13;;;1.13;;
59306;SDS011;47983;53.016;-2.260;2023-09-12T12:43:32;2.35;;;2.15;;
59306;SDS011;47983;53.016;-2.260;2023-09-12T12:46:00;3.55;;;2.42;;
59306;SDS011;47983;53.016;-2.260;2023-09-12T12:48:31;4.88;;;2.65;;
59306;SDS011;47983;53.016;-2.260;2023-09-12T12:51:12;4.95;;;3.00;;
59306;SDS011;47983;53.016;-2.260;2023-09-12T12:53:47;3.47;;;2.85;;
59306;SDS011;47983;53.016;-2.260;2023-09-12T12:56:22;2.83;;;2.47;;
59306;SDS011;47983;53.016;-2.260;2023-09-12T12:58:58;3.45;;;2.03;;
59306;SDS011;47983;53.016;-2.260;2023-09-12T13:01:30;3.45;;;2.53;;
59306;SDS011;47983;53.016;-2.260;2023-09-12T13:03:58;3.65;;;2.53;;
59306;SDS011;47983;53.016;-2.260;2023-09-12T13:06:27;2.83;;;2.63;;
59306;SDS011;47983;53.016;-2.260;2023-09-12T13:11:26;2.03;;;1.58;;
59306;SDS011;47983;53.016;-2.260;2023-09-12T13:13:53;3.13;;;1.30;;
59306;SDS011;47983;53.016;-2.260;2023-09-12T13:16:21;1.77;;;1.40;;
59306;SDS011;47983;53.016;-2.260;2023-09-12T13:18:49;2.20;;;1.23;;
59306;SDS011;47983;53.016;-2.260;2023-09-12T13:21:17;1.63;;;1.52;;
59306;SDS011;47983;53.016;-2.260;2023-09-12T13:23:45;2.08;;;1.23;;
59306;SDS011;47983;53.016;-2.260;2023-09-12T13:26:13;7.97;;;1.25;;
59306;SDS011;47983;53.016;-2.260;2023-09-12T13:28:40;1.70;;;1.30;;
59306;SDS011;47983;53.016;-2.260;2023-09-12T13:31:08;1.67;;;1.30;;
59306;SDS011;47983;53.016;-2.260;2023-09-12T13:33:37;2.35;;;1.30;;
59306;SDS011;47983;53.016;-2.260;2023-09-12T13:36:04;1.88;;;1.30;;
59306;SDS011;47983;53.016;-2.260;2023-09-12T13:38:32;2.60;;;1.40;;
59306;SDS011;47983;53.016;-2.260;2023-09-12T13:41:00;3.17;;;1.48;;
59306;SDS011;47983;53.016;-2.260;2023-09-12T13:43:28;1.10;;;0.73;;
59306;SDS011;47983;53.016;-2.260;2023-09-12T13:45:55;1.63;;;1.08;;
59306;SDS011;47983;53.016;-2.260;2023-09-12T13:48:24;1.23;;;1.10;;
59306;SDS011;47983;53.016;-2.260;2023-09-12T13:50:53;1.92;;;1.02;;
59306;SDS011;47983;53.016;-2.260;2023-09-12T13:55:50;4.03;;;1.20;;
59306;SDS011;47983;53.016;-2.260;2023-09-12T13:58:18;1.63;;;1.00;;
59306;SDS011;47983;53.016;-2.260;2023-09-12T14:00:46;2.35;;;1.13;;
59306;SDS011;47983;53.016;-2.260;2023-09-12T14:03:14;3.25;;;1.40;;
59306;SDS011;47983;53.016;-2.260;2023-09-12T14:05:42;1.85;;;1.35;;
59306;SDS011;47983;53.016;-2.260;2023-09-12T14:08:11;2.17;;;1.50;;
59306;SDS011;47983;53.016;-2.260;2023-09-12T14:10:38;2.78;;;1.98;;
59306;SDS011;47983;53.016;-2.260;2023-09-12T14:13:08;3.83;;;1.85;;
59306;SDS011;47983;53.016;-2.260;2023-09-12T14:18:19;1.75;;;1.05;;
59306;SDS011;47983;53.016;-2.260;2023-09-12T14:20:48;1.23;;;0.98;;
59306;SDS011;47983;53.016;-2.260;2023-09-12T14:23:21;1.80;;;1.00;;
59306;SDS011;47983;53.016;-2.260;2023-09-12T14:25:49;2.67;;;1.08;;
59306;SDS011;47983;53.016;-2.260;2023-09-12T14:28:17;2.28;;;0.90;;
59306;SDS011;47983;53.016;-2.260;2023-09-12T14:30:45;2.15;;;1.30;;
59306;SDS011;47983;53.016;-2.260;2023-09-12T14:33:13;1.77;;;1.05;;
59306;SDS011;47983;53.016;-2.260;2023-09-12T14:35:44;1.52;;;0.77;;
59306;SDS011;47983;53.016;-2.260;2023-09-12T14:38:12;0.75;;;0.75;;
59306;SDS011;47983;53.016;-2.260;2023-09-12T14:40:39;2.03;;;1.00;;
59306;SDS011;47983;53.016;-2.260;2023-09-12T14:43:11;1.38;;;1.10;;
59306;SDS011;47983;53.016;-2.260;2023-09-12T14:45:39;4.72;;;1.00;;
59306;SDS011;47983;53.016;-2.260;2023-09-12T14:48:07;2.55;;;1.00;;
59306;SDS011;47983;53.016;-2.260;2023-09-12T14:50:34;2.08;;;1.08;;
59306;SDS011;47983;53.016;-2.260;2023-09-12T14:53:12;1.65;;;1.20;;
59306;SDS011;47983;53.016;-2.260;2023-09-12T14:55:43;2.60;;;1.33;;
59306;SDS011;47983;53.016;-2.260;2023-09-12T14:58:11;2.50;;;0.90;;
59306;SDS011;47983;53.016;-2.260;2023-09-12T15:00:39;1.85;;;1.00;;
59306;SDS011;47983;53.016;-2.260;2023-09-12T15:03:07;2.15;;;1.33;;
59306;SDS011;47983;53.016;-2.260;2023-09-12T15:05:35;3.20;;;1.40;;
59306;SDS011;47983;53.016;-2.260;2023-09-12T15:08:02;3.40;;;1.73;;
59306;SDS011;47983;53.016;-2.260;2023-09-12T15:10:31;1.42;;;1.20;;
59306;SDS011;47983;53.016;-2.260;2023-09-12T15:12:58;4.82;;;1.63;;
59306;SDS011;47983;53.016;-2.260;2023-09-12T15:15:26;2.58;;;1.67;;
59306;SDS011;47983;53.016;-2.260;2023-09-12T15:17:54;2.08;;;1.38;;
59306;SDS011;47983;53.016;-2.260;2023-09-12T15:20:24;5.63;;;1.80;;
59306;SDS011;47983;53.016;-2.260;2023-09-12T15:22:52;3.80;;;1.70;;